Yorkville, Illinois
Current Conditions -  °F | °C
As of 1:52 AM on Wednesday 22 Oct 2014 (Local Time) from KARR Reporting Station
Broken Clouds Broken Clouds  
Wind Chill: 33°   Ceiling: 3000
Heat Index: 33°   Visibility: 9mi
Dew Point: 30°   Wind: 3mph
Humidity: 89%   Direction: 340°NNW
Pressure: 30.28"   Gusts: NA
Location:  41.64°N, 88.45°W
Report Text: KARR 220652Z AUTO 34003KT 9SM BKN030 01/M01 A3028 RMK AO2 SLP257 T00061011
Loading
Personal Weather Stations






























Interactive Weather Map New forecast layout! Learn more

10-Day Weather Forecast

Advertisements
Track Severe Weather on mobile